createdAt,value
2022-10-03T00:00:29.786Z,83.30
2022-10-03T00:03:33.950Z,84.12
2022-10-03T00:06:30.562Z,84.73
2022-10-03T00:09:01.946Z,85.07
2022-10-03T00:12:00.927Z,83.10
2022-10-03T00:14:40.957Z,83.71
2022-10-03T00:17:13.385Z,83.21
2022-10-03T00:19:48.886Z,84.52
2022-10-03T00:22:42.146Z,83.92
2022-10-03T00:25:27.537Z,83.87
2022-10-03T00:27:56.355Z,85.82
2022-10-03T00:30:24.652Z,85.52
2022-10-03T00:32:58.589Z,84.75
2022-10-03T00:35:25.096Z,84.52
2022-10-03T00:38:20.852Z,85.04
2022-10-03T00:41:09.275Z,85.08
2022-10-03T00:44:13.902Z,85.36
2022-10-03T00:46:50.637Z,86.23
2022-10-03T00:49:48.052Z,84.74
2022-10-03T00:52:37.192Z,85.84
2022-10-03T00:55:15.838Z,85.42
2022-10-03T00:57:49.093Z,85.35
2022-10-03T01:00:25.065Z,84.41
2022-10-03T01:02:51.933Z,85.35
2022-10-03T01:05:39.437Z,82.86
2022-10-03T01:08:21.189Z,85.01
2022-10-03T01:11:03.917Z,85.75
2022-10-03T01:13:52.298Z,87.47
2022-10-03T01:16:42.934Z,84.53
2022-10-03T01:19:27.688Z,84.62
2022-10-03T01:22:19.886Z,85.18
2022-10-03T01:24:52.400Z,82.93
2022-10-03T01:27:25.732Z,84.48
2022-10-03T01:30:14.315Z,84.28
2022-10-03T01:32:48.913Z,84.22
2022-10-03T01:35:29.331Z,84.33
2022-10-03T01:38:14.228Z,85.17
2022-10-03T01:40:48.009Z,84.21
2022-10-03T01:43:32.249Z,85.31
2022-10-03T01:46:11.298Z,84.62
2022-10-03T01:48:47.198Z,84.20
2022-10-03T01:51:21.958Z,84.76
2022-10-03T01:54:03.718Z,84.26
2022-10-03T01:56:40.278Z,84.17
2022-10-03T01:59:14.550Z,85.16
2022-10-03T02:01:52.825Z,84.85
2022-10-03T02:04:41.388Z,84.25
2022-10-03T02:07:36.010Z,83.50
2022-10-03T02:10:02.424Z,84.22
2022-10-03T02:12:37.127Z,84.70
2022-10-03T02:15:21.518Z,84.19
2022-10-03T02:18:13.084Z,83.54
2022-10-03T02:21:11.004Z,85.62
2022-10-03T02:23:43.912Z,85.23
2022-10-03T02:26:45.201Z,85.10
2022-10-03T02:29:42.748Z,85.61
2022-10-03T02:32:36.932Z,86.15
2022-10-03T02:35:07.865Z,86.13
2022-10-03T02:37:49.705Z,83.80
2022-10-03T02:40:28.547Z,85.44
2022-10-03T02:43:23.327Z,85.86
2022-10-03T02:46:25.104Z,84.92
2022-10-03T02:49:13.469Z,84.84
2022-10-03T02:51:59.836Z,85.32
2022-10-03T02:54:49.424Z,84.87
2022-10-03T02:57:40.783Z,84.28
2022-10-03T03:00:20.942Z,83.77
2022-10-03T03:03:24.376Z,84.00
2022-10-03T03:06:06.755Z,83.01
2022-10-03T03:08:39.313Z,83.99
2022-10-03T03:11:28.390Z,84.35
2022-10-03T03:14:22.723Z,84.44
2022-10-03T03:17:01.284Z,84.75
2022-10-03T03:19:33.790Z,84.48
2022-10-03T03:22:20.178Z,84.63
2022-10-03T03:25:01.246Z,85.09
2022-10-03T03:27:52.520Z,84.82
2022-10-03T03:30:22.042Z,84.06
2022-10-03T03:33:16.307Z,83.81
2022-10-03T03:36:04.433Z,83.22
2022-10-03T03:38:47.173Z,81.38
2022-10-03T03:41:45.334Z,80.75
2022-10-03T03:44:30.017Z,81.63
2022-10-03T03:47:21.231Z,83.20
2022-10-03T03:50:20.214Z,83.99
2022-10-03T03:53:03.092Z,83.76
2022-10-03T03:55:48.591Z,83.11
2022-10-03T03:58:24.329Z,84.12
2022-10-03T04:01:08.431Z,83.31
2022-10-03T04:04:07.827Z,84.74
2022-10-03T04:06:51.859Z,82.14
2022-10-03T04:09:39.729Z,84.22
2022-10-03T04:12:26.718Z,83.59
2022-10-03T04:15:11.870Z,83.08
2022-10-03T04:18:15.253Z,84.45
2022-10-03T04:20:58.533Z,83.83
2022-10-03T04:23:31.034Z,83.17
2022-10-03T04:26:15.847Z,84.49
2022-10-03T04:29:21.304Z,86.82
2022-10-03T04:31:50.722Z,86.24
2022-10-03T04:34:42.878Z,84.27
2022-10-03T04:37:21.333Z,83.46
2022-10-03T04:39:53.297Z,84.13
2022-10-03T04:42:56.035Z,85.38
2022-10-03T04:45:49.042Z,85.19
2022-10-03T04:48:26.895Z,84.96
2022-10-03T04:51:18.256Z,85.32
2022-10-03T04:54:02.330Z,85.94
2022-10-03T04:56:37.808Z,86.10
2022-10-03T04:59:22.524Z,86.51
2022-10-03T05:02:03.332Z,85.60
2022-10-03T05:04:34.126Z,86.09
2022-10-03T05:07:25.522Z,85.49
2022-10-03T05:10:06.497Z,86.01
2022-10-03T05:12:39.946Z,82.97
2022-10-03T05:15:24.465Z,84.31
2022-10-03T05:18:24.644Z,81.96
2022-10-03T05:21:00.758Z,83.46
2022-10-03T05:24:03.071Z,83.89
2022-10-03T05:27:07.126Z,84.49
2022-10-03T05:29:40.266Z,82.80
2022-10-03T05:32:12.772Z,84.86
2022-10-03T05:35:14.131Z,84.29
2022-10-03T05:38:14.525Z,85.03
2022-10-03T05:40:44.062Z,82.92
2022-10-03T05:43:16.567Z,81.94
2022-10-03T05:46:04.353Z,83.43
2022-10-03T05:48:56.954Z,82.42
2022-10-03T05:51:39.566Z,83.22
2022-10-03T05:54:18.429Z,84.82
2022-10-03T05:57:13.779Z,85.43
2022-10-03T05:59:59.422Z,85.02
2022-10-03T06:02:52.934Z,84.30
2022-10-03T06:06:01.808Z,87.67
2022-10-03T06:08:48.512Z,87.12
2022-10-03T06:11:50.166Z,86.28
2022-10-03T06:14:25.674Z,87.04
2022-10-03T06:17:13.552Z,85.21
2022-10-03T06:19:49.771Z,86.28
2022-10-03T06:22:28.436Z,86.53
2022-10-03T06:25:16.980Z,85.92
2022-10-03T06:28:25.113Z,86.76
2022-10-03T06:31:13.931Z,85.72
2022-10-03T06:34:04.713Z,84.56
2022-10-03T06:37:01.164Z,84.92
2022-10-03T06:39:52.125Z,83.49
2022-10-03T06:42:49.668Z,82.53
2022-10-03T06:45:30.933Z,86.53
2022-10-03T06:47:57.652Z,83.62
2022-10-03T06:50:40.194Z,85.18
2022-10-03T06:53:37.896Z,85.89
2022-10-03T06:56:19.226Z,84.58
2022-10-03T06:59:10.641Z,83.44
2022-10-03T07:01:48.566Z,85.57
2022-10-03T07:04:36.556Z,83.68
2022-10-03T07:07:32.772Z,84.22
2022-10-03T07:10:18.105Z,83.87
2022-10-03T07:13:18.521Z,84.41
2022-10-03T07:16:20.934Z,86.12
2022-10-03T07:19:20.112Z,83.05
2022-10-03T07:22:32.744Z,83.87
2022-10-03T07:25:11.403Z,82.48
2022-10-03T07:27:48.674Z,85.23
2022-10-03T07:30:20.446Z,82.77
2022-10-03T07:33:08.567Z,83.88
2022-10-03T07:35:58.999Z,84.67
2022-10-03T07:38:47.046Z,84.15
2022-10-03T07:41:25.605Z,84.78
2022-10-03T07:44:29.636Z,83.88
2022-10-03T07:47:39.342Z,82.01
2022-10-03T07:50:40.248Z,80.67
2022-10-03T07:53:45.317Z,82.18
2022-10-03T07:56:33.521Z,79.83
2022-10-03T07:59:33.648Z,80.24
2022-10-03T08:02:24.084Z,80.16
2022-10-03T08:05:10.525Z,80.27
2022-10-03T08:07:55.425Z,80.58
2022-10-03T08:10:56.364Z,80.58
2022-10-03T08:13:55.961Z,79.33
2022-10-03T08:16:44.180Z,79.71
2022-10-03T08:19:30.587Z,77.81
2022-10-03T08:22:15.050Z,78.97
2022-10-03T08:24:47.587Z,78.44
2022-10-03T08:27:48.122Z,78.12
2022-10-03T08:30:22.351Z,78.65
2022-10-03T08:33:36.483Z,78.92
2022-10-03T08:36:11.084Z,77.34
2022-10-03T08:38:48.801Z,77.98
2022-10-03T08:41:30.676Z,77.78
2022-10-03T08:44:19.039Z,78.98
2022-10-03T08:46:55.709Z,78.40
2022-10-03T08:50:04.357Z,76.15
2022-10-03T08:52:49.024Z,75.69
2022-10-03T08:55:27.743Z,76.13
2022-10-03T08:58:32.045Z,75.40
2022-10-03T09:01:20.570Z,73.78
2022-10-03T09:04:02.756Z,75.16
2022-10-03T09:07:17.705Z,73.21
2022-10-03T09:09:57.069Z,76.80
2022-10-03T09:13:01.786Z,74.92
2022-10-03T09:15:42.580Z,75.84
2022-10-03T09:18:24.318Z,73.61
2022-10-03T09:21:20.326Z,74.74
2022-10-03T09:24:01.852Z,73.12
2022-10-03T09:26:31.329Z,73.94
2022-10-03T09:29:32.172Z,72.42
2022-10-03T09:32:29.798Z,72.50
2022-10-03T09:35:21.241Z,70.62
2022-10-03T09:38:12.784Z,69.44
2022-10-03T09:40:56.678Z,69.95
2022-10-03T09:43:58.939Z,69.97
2022-10-03T09:47:21.556Z,70.18
2022-10-03T09:50:19.522Z,69.02
2022-10-03T09:53:02.547Z,68.74
2022-10-03T09:55:52.067Z,68.12
2022-10-03T09:59:15.918Z,68.52
2022-10-03T10:01:46.822Z,67.89
2022-10-03T10:04:53.032Z,68.51
2022-10-03T10:07:40.075Z,68.59
2022-10-03T10:10:27.883Z,68.23
2022-10-03T10:13:14.267Z,66.96
2022-10-03T10:16:09.835Z,66.84
2022-10-03T10:19:02.453Z,67.07
2022-10-03T10:21:34.964Z,67.58
2022-10-03T10:24:40.180Z,68.63
2022-10-03T10:27:37.833Z,66.01
2022-10-03T10:30:13.770Z,66.14
2022-10-03T10:33:12.682Z,65.41
2022-10-03T10:35:59.590Z,65.31
2022-10-03T10:38:38.114Z,65.40
2022-10-03T10:41:22.906Z,66.70
2022-10-03T10:44:09.296Z,66.94
2022-10-03T10:46:45.518Z,67.80
2022-10-03T10:49:15.126Z,67.72
2022-10-03T10:52:26.551Z,67.56
2022-10-03T10:55:05.212Z,67.43
2022-10-03T10:57:52.005Z,66.97
2022-10-03T11:00:26.528Z,64.34
2022-10-03T11:03:27.370Z,64.39
2022-10-03T11:06:12.714Z,65.09
2022-10-03T11:08:42.177Z,67.49
2022-10-03T11:11:23.902Z,68.76
2022-10-03T11:14:28.280Z,72.31
2022-10-03T11:17:29.675Z,76.11
2022-10-03T11:20:28.325Z,76.71
2022-10-03T11:23:06.825Z,76.14
2022-10-03T11:26:07.259Z,75.94
2022-10-03T11:29:01.765Z,75.64
2022-10-03T11:32:07.798Z,73.60
2022-10-03T11:34:46.229Z,73.36
2022-10-03T11:37:46.106Z,74.68
2022-10-03T11:40:35.332Z,72.39
2022-10-03T11:43:38.947Z,71.13
2022-10-03T11:46:33.884Z,71.26
2022-10-03T11:49:09.673Z,69.05
2022-10-03T11:51:41.717Z,67.01
2022-10-03T11:54:31.436Z,68.68
2022-10-03T11:57:13.776Z,70.23
2022-10-03T11:59:53.616Z,70.62
2022-10-03T12:02:25.576Z,69.85
2022-10-03T12:04:58.404Z,68.68
2022-10-03T12:08:33.245Z,71.16
2022-10-03T12:10:59.686Z,67.05
2022-10-03T12:13:35.972Z,69.01
2022-10-03T12:16:06.544Z,66.27
2022-10-03T12:18:45.180Z,67.15
2022-10-03T12:21:24.361Z,66.48
2022-10-03T12:23:53.846Z,66.65
2022-10-03T12:26:31.861Z,64.97
2022-10-03T12:28:59.565Z,65.47
2022-10-03T12:31:36.189Z,67.93
2022-10-03T12:34:31.393Z,65.30
2022-10-03T12:37:14.794Z,65.75
2022-10-03T12:40:10.727Z,67.88
2022-10-03T12:42:56.054Z,68.74
2022-10-03T12:46:13.261Z,67.97
2022-10-03T12:48:48.412Z,68.45
2022-10-03T12:51:14.837Z,69.10
2022-10-03T12:53:59.785Z,67.99
2022-10-03T12:56:39.126Z,68.45
2022-10-03T12:59:24.739Z,68.29
2022-10-03T13:02:03.056Z,68.55
2022-10-03T13:04:43.564Z,69.79
2022-10-03T13:07:36.404Z,70.20
2022-10-03T13:10:23.086Z,70.95
2022-10-03T13:12:55.009Z,69.78
2022-10-03T13:15:44.359Z,71.07
2022-10-03T13:18:29.195Z,70.09
2022-10-03T13:21:45.431Z,71.09
2022-10-03T13:24:34.994Z,70.18
2022-10-03T13:27:12.529Z,70.02
2022-10-03T13:29:53.581Z,72.20
2022-10-03T13:32:36.451Z,71.93
2022-10-03T13:35:26.354Z,72.18
2022-10-03T13:38:06.314Z,71.41
2022-10-03T13:40:36.003Z,71.92
2022-10-03T13:43:03.735Z,71.01
2022-10-03T13:45:30.816Z,70.35
2022-10-03T13:48:07.034Z,72.69
2022-10-03T13:50:34.033Z,71.97
2022-10-03T13:53:12.240Z,72.81
2022-10-03T13:55:44.952Z,72.98
2022-10-03T13:58:11.555Z,75.04
2022-10-03T14:00:57.257Z,75.00
2022-10-03T14:04:06.109Z,74.75
2022-10-03T14:06:54.391Z,75.32
2022-10-03T14:09:24.094Z,74.25
2022-10-03T14:12:04.591Z,75.53
2022-10-03T14:14:50.422Z,75.97
2022-10-03T14:17:25.336Z,76.97
2022-10-03T14:20:29.648Z,76.77
2022-10-03T14:23:07.591Z,76.68
2022-10-03T14:25:42.964Z,75.63
2022-10-03T14:28:32.769Z,74.55
2022-10-03T14:31:25.281Z,73.93
2022-10-03T14:34:02.556Z,74.57
2022-10-03T14:36:47.646Z,74.55
2022-10-03T14:39:29.368Z,74.90
2022-10-03T14:41:55.785Z,74.00
2022-10-03T14:44:41.417Z,75.88
2022-10-03T14:47:13.267Z,76.34
2022-10-03T14:49:59.450Z,78.01
2022-10-03T14:52:41.109Z,75.59
2022-10-03T14:55:21.508Z,77.14
2022-10-03T14:58:09.772Z,76.06
2022-10-03T15:00:43.826Z,73.97
2022-10-03T15:03:16.692Z,75.25
2022-10-03T15:06:17.046Z,75.95
2022-10-03T15:08:46.950Z,78.31
2022-10-03T15:11:15.909Z,79.35
2022-10-03T15:13:51.207Z,76.56
2022-10-03T15:16:19.723Z,78.64
2022-10-03T15:18:56.406Z,79.30
2022-10-03T15:21:25.047Z,79.51
2022-10-03T15:24:02.593Z,78.93
2022-10-03T15:26:35.835Z,79.11
2022-10-03T15:29:04.690Z,80.54
2022-10-03T15:31:43.565Z,78.46
2022-10-03T15:34:20.275Z,77.82
2022-10-03T15:36:49.930Z,78.10
2022-10-03T15:39:30.633Z,77.68
2022-10-03T15:42:09.396Z,78.80
2022-10-03T15:44:53.712Z,77.54
2022-10-03T15:47:26.825Z,79.37
2022-10-03T15:50:07.238Z,77.35
2022-10-03T15:52:41.509Z,76.97
2022-10-03T15:55:15.015Z,76.92
2022-10-03T15:57:46.657Z,76.98
2022-10-03T16:00:27.913Z,77.78
2022-10-03T16:03:06.329Z,78.11
2022-10-03T16:05:33.115Z,77.80
2022-10-03T16:08:06.401Z,79.21
2022-10-03T16:11:02.713Z,79.56
2022-10-03T16:13:39.134Z,78.73
2022-10-03T16:16:09.176Z,78.98
2022-10-03T16:18:50.995Z,78.44
2022-10-03T16:21:45.312Z,77.91
2022-10-03T16:24:55.363Z,79.48
2022-10-03T16:27:27.215Z,79.42
2022-10-03T16:30:12.039Z,79.56
2022-10-03T16:32:45.198Z,79.35
2022-10-03T16:35:35.977Z,79.51
2022-10-03T16:38:05.298Z,77.49
2022-10-03T16:40:32.792Z,78.58
2022-10-03T16:43:00.316Z,79.35
2022-10-03T16:45:33.704Z,78.17
2022-10-03T16:48:21.084Z,79.92
2022-10-03T16:50:53.652Z,80.07
2022-10-03T16:53:22.376Z,81.42
2022-10-03T16:55:55.391Z,80.63
2022-10-03T16:58:33.345Z,79.85
2022-10-03T17:04:15.834Z,80.46
2022-10-03T17:06:46.608Z,79.67
2022-10-03T17:09:25.077Z,80.40
2022-10-03T17:11:58.771Z,79.99
2022-10-03T17:14:28.254Z,79.96
2022-10-03T17:16:56.814Z,82.10
2022-10-03T17:19:39.106Z,81.80
2022-10-03T17:22:13.391Z,81.50
2022-10-03T17:24:42.739Z,81.84
2022-10-03T17:27:39.188Z,83.14
2022-10-03T17:30:12.414Z,83.19
2022-10-03T17:32:42.167Z,84.87
2022-10-03T17:35:15.619Z,84.09
2022-10-03T17:37:52.196Z,83.79
2022-10-03T17:40:28.483Z,83.98
2022-10-03T17:42:57.471Z,83.57
2022-10-03T17:45:45.102Z,84.24
2022-10-03T17:48:19.736Z,84.17
2022-10-03T17:51:24.136Z,86.06
2022-10-03T17:53:56.697Z,85.84
2022-10-03T17:56:24.756Z,84.16
2022-10-03T17:59:05.955Z,86.47
2022-10-03T18:01:40.027Z,83.72
2022-10-03T18:04:15.289Z,83.10
2022-10-03T18:07:24.145Z,85.35
2022-10-03T18:09:52.383Z,85.04
2022-10-03T18:12:39.923Z,84.66
2022-10-03T18:15:36.426Z,86.88
2022-10-03T18:18:02.828Z,84.83
2022-10-03T18:20:48.217Z,85.75
2022-10-03T18:23:50.026Z,85.61
2022-10-03T18:26:33.818Z,85.61
2022-10-03T18:29:00.209Z,83.77
2022-10-03T18:31:27.376Z,84.88
2022-10-03T18:34:03.626Z,83.78
2022-10-03T18:36:34.283Z,84.81
2022-10-03T18:39:27.433Z,87.07
2022-10-03T18:41:58.905Z,86.04
2022-10-03T18:44:28.990Z,85.97
2022-10-03T18:47:27.078Z,86.28
2022-10-03T18:50:27.500Z,84.86
2022-10-03T18:52:59.369Z,82.81
2022-10-03T18:55:39.917Z,82.92
2022-10-03T18:58:31.317Z,83.70
2022-10-03T19:01:19.611Z,84.02
2022-10-03T19:03:59.314Z,85.02
2022-10-03T19:06:41.824Z,85.50
2022-10-03T19:09:19.654Z,84.41
2022-10-03T19:12:18.302Z,82.72
2022-10-03T19:15:22.581Z,82.44
2022-10-03T19:18:17.184Z,80.58
2022-10-03T19:20:45.437Z,84.35
2022-10-03T19:23:14.232Z,83.64
2022-10-03T19:25:43.272Z,83.02
2022-10-03T19:28:29.510Z,82.29
2022-10-03T19:31:21.245Z,81.78
2022-10-03T19:34:25.633Z,82.23
2022-10-03T19:36:52.745Z,82.34
2022-10-03T19:39:20.698Z,82.19
2022-10-03T19:41:52.437Z,81.75
2022-10-03T19:44:24.924Z,80.77
2022-10-03T19:47:14.228Z,81.02
2022-10-03T19:49:51.609Z,80.57
2022-10-03T19:52:24.011Z,78.95
2022-10-03T19:54:53.716Z,79.50
2022-10-03T19:57:25.715Z,79.16
2022-10-03T19:59:54.706Z,79.31
2022-10-03T20:02:26.043Z,79.72
2022-10-03T20:04:54.344Z,77.94
2022-10-03T20:07:35.853Z,78.59
2022-10-03T20:10:30.050Z,79.34
2022-10-03T20:13:03.380Z,79.70
2022-10-03T20:15:38.583Z,78.37
2022-10-03T20:18:06.398Z,78.67
2022-10-03T20:20:33.380Z,78.97
2022-10-03T20:23:05.261Z,78.51
2022-10-03T20:25:36.292Z,79.22
2022-10-03T20:28:05.864Z,79.33
2022-10-03T20:30:39.802Z,79.10
2022-10-03T20:33:07.369Z,79.27
2022-10-03T20:35:49.043Z,80.00
2022-10-03T20:38:35.280Z,79.58
2022-10-03T20:41:11.949Z,79.02
2022-10-03T20:43:56.804Z,78.91
2022-10-03T20:46:33.121Z,79.17
2022-10-03T20:49:15.714Z,78.18
2022-10-03T20:51:56.746Z,79.90
2022-10-03T20:54:25.775Z,78.53
2022-10-03T20:56:58.625Z,78.52
2022-10-03T20:59:29.534Z,78.94
2022-10-03T21:02:14.240Z,77.88
2022-10-03T21:04:52.705Z,78.25
2022-10-03T21:07:29.195Z,78.84
2022-10-03T21:10:15.891Z,79.32
2022-10-03T21:12:51.346Z,78.73
2022-10-03T21:15:29.837Z,78.30
2022-10-03T21:17:57.139Z,78.05
2022-10-03T21:20:28.244Z,77.80
2022-10-03T21:23:00.149Z,78.78
2022-10-03T21:25:34.641Z,78.71
2022-10-03T21:28:02.963Z,79.49
2022-10-03T21:30:39.929Z,79.89
2022-10-03T21:33:12.079Z,80.29
2022-10-03T21:35:43.224Z,78.83
2022-10-03T21:38:32.225Z,78.46
2022-10-03T21:41:10.799Z,78.40
2022-10-03T21:43:59.741Z,78.10
2022-10-03T21:46:34.818Z,79.60
2022-10-03T21:49:23.867Z,80.20
2022-10-03T21:51:52.057Z,83.39
2022-10-03T21:54:50.099Z,81.08
2022-10-03T21:57:32.260Z,79.68
2022-10-03T22:00:01.752Z,80.24
2022-10-03T22:02:41.185Z,78.48
2022-10-03T22:05:09.579Z,78.20
2022-10-03T22:07:41.551Z,78.68
2022-10-03T22:10:21.638Z,77.10
2022-10-03T22:12:51.995Z,78.36
2022-10-03T22:15:40.205Z,80.38
2022-10-03T22:18:19.348Z,78.03
2022-10-03T22:21:13.573Z,79.12
2022-10-03T22:23:53.064Z,77.96
2022-10-03T22:26:35.472Z,79.01
2022-10-03T22:29:11.426Z,78.21
2022-10-03T22:31:45.849Z,79.87
2022-10-03T22:34:35.694Z,78.75
2022-10-03T22:37:02.715Z,79.55
2022-10-03T22:39:29.694Z,80.11
2022-10-03T22:42:02.141Z,79.32
2022-10-03T22:44:32.006Z,78.85
2022-10-03T22:47:04.766Z,79.14
2022-10-03T22:49:38.799Z,78.84
2022-10-03T22:52:08.270Z,78.95
2022-10-03T22:54:38.206Z,79.08
2022-10-03T22:57:06.576Z,79.01
2022-10-03T22:59:50.168Z,78.81
2022-10-03T23:02:17.833Z,80.21
2022-10-03T23:04:52.015Z,78.75
2022-10-03T23:07:21.501Z,78.13
2022-10-03T23:10:15.479Z,79.68
2022-10-03T23:12:51.315Z,79.61
2022-10-03T23:15:19.877Z,79.36
2022-10-03T23:17:56.107Z,78.99
2022-10-03T23:20:48.777Z,78.94
2022-10-03T23:23:19.421Z,79.92
2022-10-03T23:25:51.797Z,79.03
2022-10-03T23:28:43.469Z,79.86
2022-10-03T23:31:49.003Z,79.60
2022-10-03T23:34:34.319Z,79.43
2022-10-03T23:37:01.782Z,78.85
2022-10-03T23:39:35.789Z,78.22
2022-10-03T23:42:09.125Z,78.12
2022-10-03T23:44:50.565Z,80.33
2022-10-03T23:47:20.441Z,78.34
2022-10-03T23:49:49.055Z,78.22
2022-10-03T23:52:24.719Z,78.70
2022-10-03T23:54:54.378Z,77.97
2022-10-03T23:57:21.600Z,78.49
2022-10-03T23:59:48.741Z,77.81
